sensor_id;sensor_type;location;lat;lon;timestamp;P1;durP1;ratioP1;P2;durP2;ratioP2
71667;SDS011;59504;54.806;9.640;2023-02-17T00:01:09;33.42;;;19.10;;
71667;SDS011;59504;54.806;9.640;2023-02-17T00:03:50;27.85;;;18.33;;
71667;SDS011;59504;54.806;9.640;2023-02-17T00:06:12;30.80;;;19.73;;
71667;SDS011;59504;54.806;9.640;2023-02-17T00:08:33;35.72;;;21.42;;
71667;SDS011;59504;54.806;9.640;2023-02-17T00:10:55;34.28;;;20.48;;
71667;SDS011;59504;54.806;9.640;2023-02-17T00:13:17;35.60;;;21.67;;
71667;SDS011;59504;54.806;9.640;2023-02-17T00:15:38;38.63;;;23.15;;
71667;SDS011;59504;54.806;9.640;2023-02-17T00:17:59;35.45;;;20.48;;
71667;SDS011;59504;54.806;9.640;2023-02-17T00:20:20;34.50;;;21.20;;
71667;SDS011;59504;54.806;9.640;2023-02-17T00:22:41;37.38;;;21.85;;
71667;SDS011;59504;54.806;9.640;2023-02-17T00:25:02;38.03;;;22.08;;
71667;SDS011;59504;54.806;9.640;2023-02-17T00:27:23;38.30;;;21.95;;
71667;SDS011;59504;54.806;9.640;2023-02-17T00:29:44;35.70;;;21.75;;
71667;SDS011;59504;54.806;9.640;2023-02-17T00:32:05;33.38;;;21.25;;
71667;SDS011;59504;54.806;9.640;2023-02-17T00:34:26;31.00;;;20.10;;
71667;SDS011;59504;54.806;9.640;2023-02-17T00:36:47;33.60;;;20.42;;
71667;SDS011;59504;54.806;9.640;2023-02-17T00:39:10;32.05;;;20.42;;
71667;SDS011;59504;54.806;9.640;2023-02-17T00:41:35;33.63;;;20.58;;
71667;SDS011;59504;54.806;9.640;2023-02-17T00:43:56;29.27;;;18.60;;
71667;SDS011;59504;54.806;9.640;2023-02-17T00:46:17;26.83;;;17.67;;
71667;SDS011;59504;54.806;9.640;2023-02-17T00:48:38;26.38;;;17.05;;
71667;SDS011;59504;54.806;9.640;2023-02-17T00:50:59;26.20;;;16.95;;
71667;SDS011;59504;54.806;9.640;2023-02-17T00:53:20;23.20;;;14.80;;
71667;SDS011;59504;54.806;9.640;2023-02-17T00:55:42;23.55;;;14.68;;
71667;SDS011;59504;54.806;9.640;2023-02-17T00:58:02;25.27;;;14.45;;
71667;SDS011;59504;54.806;9.640;2023-02-17T01:00:23;23.40;;;14.80;;
71667;SDS011;59504;54.806;9.640;2023-02-17T01:02:44;21.65;;;14.68;;
71667;SDS011;59504;54.806;9.640;2023-02-17T01:05:05;20.52;;;13.48;;
71667;SDS011;59504;54.806;9.640;2023-02-17T01:07:27;20.08;;;13.05;;
71667;SDS011;59504;54.806;9.640;2023-02-17T01:09:48;20.77;;;13.48;;
71667;SDS011;59504;54.806;9.640;2023-02-17T01:12:10;20.98;;;13.48;;
71667;SDS011;59504;54.806;9.640;2023-02-17T01:14:31;18.00;;;12.45;;
71667;SDS011;59504;54.806;9.640;2023-02-17T01:16:52;16.33;;;11.30;;
71667;SDS011;59504;54.806;9.640;2023-02-17T01:19:15;18.25;;;12.57;;
71667;SDS011;59504;54.806;9.640;2023-02-17T01:21:37;19.48;;;12.20;;
71667;SDS011;59504;54.806;9.640;2023-02-17T01:24:00;18.17;;;11.65;;
71667;SDS011;59504;54.806;9.640;2023-02-17T01:26:23;17.58;;;11.52;;
71667;SDS011;59504;54.806;9.640;2023-02-17T01:28:47;18.35;;;11.73;;
71667;SDS011;59504;54.806;9.640;2023-02-17T01:31:09;16.23;;;10.95;;
71667;SDS011;59504;54.806;9.640;2023-02-17T01:33:30;16.77;;;11.05;;
71667;SDS011;59504;54.806;9.640;2023-02-17T01:35:51;17.13;;;11.48;;
71667;SDS011;59504;54.806;9.640;2023-02-17T01:38:12;15.95;;;10.65;;
71667;SDS011;59504;54.806;9.640;2023-02-17T01:40:33;16.88;;;10.90;;
71667;SDS011;59504;54.806;9.640;2023-02-17T01:42:54;18.42;;;11.93;;
71667;SDS011;59504;54.806;9.640;2023-02-17T01:47:39;16.58;;;11.43;;
71667;SDS011;59504;54.806;9.640;2023-02-17T01:50:00;18.58;;;11.98;;
71667;SDS011;59504;54.806;9.640;2023-02-17T01:52:22;17.95;;;11.80;;
71667;SDS011;59504;54.806;9.640;2023-02-17T01:54:53;17.20;;;11.27;;
71667;SDS011;59504;54.806;9.640;2023-02-17T01:57:18;16.77;;;11.52;;
71667;SDS011;59504;54.806;9.640;2023-02-17T01:59:42;17.08;;;12.07;;
71667;SDS011;59504;54.806;9.640;2023-02-17T02:02:04;15.52;;;10.98;;
71667;SDS011;59504;54.806;9.640;2023-02-17T02:04:27;16.73;;;11.48;;
71667;SDS011;59504;54.806;9.640;2023-02-17T02:06:51;16.05;;;10.93;;
71667;SDS011;59504;54.806;9.640;2023-02-17T02:09:18;16.17;;;10.18;;
71667;SDS011;59504;54.806;9.640;2023-02-17T02:11:41;16.15;;;10.82;;
71667;SDS011;59504;54.806;9.640;2023-02-17T02:14:03;17.13;;;10.90;;
71667;SDS011;59504;54.806;9.640;2023-02-17T02:16:28;17.17;;;10.60;;
71667;SDS011;59504;54.806;9.640;2023-02-17T02:19:11;14.23;;;10.05;;
71667;SDS011;59504;54.806;9.640;2023-02-17T02:24:03;18.15;;;11.40;;
71667;SDS011;59504;54.806;9.640;2023-02-17T02:29:24;20.40;;;12.98;;
71667;SDS011;59504;54.806;9.640;2023-02-17T02:34:47;20.85;;;12.45;;
71667;SDS011;59504;54.806;9.640;2023-02-17T02:37:37;24.05;;;13.88;;
71667;SDS011;59504;54.806;9.640;2023-02-17T02:40:07;21.55;;;12.73;;
71667;SDS011;59504;54.806;9.640;2023-02-17T02:42:30;20.00;;;12.35;;
71667;SDS011;59504;54.806;9.640;2023-02-17T02:44:51;19.55;;;12.43;;
71667;SDS011;59504;54.806;9.640;2023-02-17T02:49:54;19.75;;;12.13;;
71667;SDS011;59504;54.806;9.640;2023-02-17T02:52:22;17.67;;;11.30;;
71667;SDS011;59504;54.806;9.640;2023-02-17T02:54:57;17.20;;;10.45;;
71667;SDS011;59504;54.806;9.640;2023-02-17T02:57:47;15.85;;;9.68;;
71667;SDS011;59504;54.806;9.640;2023-02-17T03:03:40;18.65;;;11.45;;
71667;SDS011;59504;54.806;9.640;2023-02-17T03:06:10;16.83;;;11.05;;
71667;SDS011;59504;54.806;9.640;2023-02-17T03:08:41;23.23;;;13.15;;
71667;SDS011;59504;54.806;9.640;2023-02-17T03:11:08;21.77;;;13.00;;
71667;SDS011;59504;54.806;9.640;2023-02-17T03:13:31;22.27;;;13.50;;
71667;SDS011;59504;54.806;9.640;2023-02-17T03:15:58;27.13;;;15.90;;
71667;SDS011;59504;54.806;9.640;2023-02-17T03:18:19;29.13;;;16.85;;
71667;SDS011;59504;54.806;9.640;2023-02-17T03:20:50;27.45;;;15.75;;
71667;SDS011;59504;54.806;9.640;2023-02-17T03:23:15;27.35;;;15.02;;
71667;SDS011;59504;54.806;9.640;2023-02-17T03:25:36;32.20;;;17.52;;
71667;SDS011;59504;54.806;9.640;2023-02-17T03:27:57;31.77;;;18.08;;
71667;SDS011;59504;54.806;9.640;2023-02-17T03:30:21;31.88;;;18.38;;
71667;SDS011;59504;54.806;9.640;2023-02-17T03:32:42;31.15;;;17.27;;
71667;SDS011;59504;54.806;9.640;2023-02-17T03:35:03;37.00;;;19.13;;
71667;SDS011;59504;54.806;9.640;2023-02-17T03:37:25;34.38;;;19.15;;
71667;SDS011;59504;54.806;9.640;2023-02-17T03:39:46;36.40;;;19.02;;
71667;SDS011;59504;54.806;9.640;2023-02-17T03:42:07;37.03;;;19.58;;
71667;SDS011;59504;54.806;9.640;2023-02-17T03:44:28;33.20;;;18.33;;
71667;SDS011;59504;54.806;9.640;2023-02-17T03:46:48;36.53;;;18.92;;
71667;SDS011;59504;54.806;9.640;2023-02-17T03:49:09;32.50;;;17.70;;
71667;SDS011;59504;54.806;9.640;2023-02-17T03:51:30;30.55;;;17.13;;
71667;SDS011;59504;54.806;9.640;2023-02-17T03:53:51;31.92;;;16.20;;
71667;SDS011;59504;54.806;9.640;2023-02-17T03:56:12;32.75;;;16.83;;
71667;SDS011;59504;54.806;9.640;2023-02-17T03:58:34;32.28;;;15.90;;
71667;SDS011;59504;54.806;9.640;2023-02-17T04:00:55;30.20;;;16.65;;
71667;SDS011;59504;54.806;9.640;2023-02-17T04:03:15;25.73;;;14.75;;
71667;SDS011;59504;54.806;9.640;2023-02-17T04:05:36;33.75;;;16.73;;
71667;SDS011;59504;54.806;9.640;2023-02-17T04:07:57;32.95;;;17.70;;
71667;SDS011;59504;54.806;9.640;2023-02-17T04:10:18;35.63;;;17.83;;
71667;SDS011;59504;54.806;9.640;2023-02-17T04:12:39;37.30;;;19.73;;
71667;SDS011;59504;54.806;9.640;2023-02-17T04:15:00;35.92;;;18.13;;
71667;SDS011;59504;54.806;9.640;2023-02-17T04:17:21;37.20;;;19.23;;
71667;SDS011;59504;54.806;9.640;2023-02-17T04:19:42;37.63;;;17.73;;
71667;SDS011;59504;54.806;9.640;2023-02-17T04:22:03;30.80;;;16.05;;
71667;SDS011;59504;54.806;9.640;2023-02-17T04:24:28;28.55;;;14.60;;
71667;SDS011;59504;54.806;9.640;2023-02-17T04:26:49;27.33;;;13.50;;
71667;SDS011;59504;54.806;9.640;2023-02-17T04:29:09;25.13;;;13.18;;
71667;SDS011;59504;54.806;9.640;2023-02-17T04:31:30;27.02;;;13.90;;
71667;SDS011;59504;54.806;9.640;2023-02-17T04:33:51;22.10;;;12.15;;
71667;SDS011;59504;54.806;9.640;2023-02-17T04:36:12;23.65;;;11.32;;
71667;SDS011;59504;54.806;9.640;2023-02-17T04:38:33;19.63;;;10.57;;
71667;SDS011;59504;54.806;9.640;2023-02-17T04:40:55;22.23;;;10.52;;
71667;SDS011;59504;54.806;9.640;2023-02-17T04:43:17;17.98;;;9.55;;
71667;SDS011;59504;54.806;9.640;2023-02-17T04:45:37;15.70;;;8.43;;
71667;SDS011;59504;54.806;9.640;2023-02-17T04:47:58;15.40;;;8.32;;
71667;SDS011;59504;54.806;9.640;2023-02-17T04:50:19;13.25;;;7.78;;
71667;SDS011;59504;54.806;9.640;2023-02-17T04:52:40;17.23;;;7.13;;
71667;SDS011;59504;54.806;9.640;2023-02-17T04:55:02;10.88;;;5.97;;
71667;SDS011;59504;54.806;9.640;2023-02-17T04:57:24;9.35;;;5.72;;
71667;SDS011;59504;54.806;9.640;2023-02-17T04:59:45;9.73;;;6.40;;
71667;SDS011;59504;54.806;9.640;2023-02-17T05:02:06;8.57;;;5.13;;
71667;SDS011;59504;54.806;9.640;2023-02-17T05:04:27;9.50;;;5.07;;
71667;SDS011;59504;54.806;9.640;2023-02-17T05:06:48;9.45;;;5.15;;
71667;SDS011;59504;54.806;9.640;2023-02-17T05:09:09;10.00;;;5.63;;
71667;SDS011;59504;54.806;9.640;2023-02-17T05:11:29;11.27;;;5.93;;
71667;SDS011;59504;54.806;9.640;2023-02-17T05:13:50;13.40;;;6.82;;
71667;SDS011;59504;54.806;9.640;2023-02-17T05:16:11;15.30;;;7.47;;
71667;SDS011;59504;54.806;9.640;2023-02-17T05:18:32;15.93;;;8.48;;
71667;SDS011;59504;54.806;9.640;2023-02-17T05:20:53;15.05;;;8.43;;
71667;SDS011;59504;54.806;9.640;2023-02-17T05:23:14;20.85;;;10.55;;
71667;SDS011;59504;54.806;9.640;2023-02-17T05:25:35;21.25;;;10.65;;
71667;SDS011;59504;54.806;9.640;2023-02-17T05:27:56;20.80;;;11.07;;
71667;SDS011;59504;54.806;9.640;2023-02-17T05:30:20;24.50;;;11.57;;
71667;SDS011;59504;54.806;9.640;2023-02-17T05:32:41;20.67;;;11.25;;
71667;SDS011;59504;54.806;9.640;2023-02-17T05:35:02;28.30;;;12.20;;
71667;SDS011;59504;54.806;9.640;2023-02-17T05:37:23;22.50;;;12.10;;
71667;SDS011;59504;54.806;9.640;2023-02-17T05:39:44;30.20;;;13.93;;
71667;SDS011;59504;54.806;9.640;2023-02-17T05:42:05;21.52;;;11.13;;
71667;SDS011;59504;54.806;9.640;2023-02-17T05:44:26;23.77;;;13.45;;
71667;SDS011;59504;54.806;9.640;2023-02-17T05:46:47;25.42;;;13.25;;
71667;SDS011;59504;54.806;9.640;2023-02-17T05:49:08;23.33;;;12.88;;
71667;SDS011;59504;54.806;9.640;2023-02-17T05:51:29;25.35;;;12.77;;
71667;SDS011;59504;54.806;9.640;2023-02-17T05:53:50;26.52;;;13.40;;
71667;SDS011;59504;54.806;9.640;2023-02-17T05:56:11;28.98;;;13.73;;
71667;SDS011;59504;54.806;9.640;2023-02-17T05:58:32;29.60;;;14.48;;
71667;SDS011;59504;54.806;9.640;2023-02-17T06:00:53;34.65;;;16.55;;
71667;SDS011;59504;54.806;9.640;2023-02-17T06:03:14;35.75;;;15.48;;
71667;SDS011;59504;54.806;9.640;2023-02-17T06:05:35;32.42;;;14.40;;
71667;SDS011;59504;54.806;9.640;2023-02-17T06:07:56;25.80;;;12.45;;
71667;SDS011;59504;54.806;9.640;2023-02-17T06:10:17;22.98;;;11.18;;
71667;SDS011;59504;54.806;9.640;2023-02-17T06:12:38;31.25;;;11.57;;
71667;SDS011;59504;54.806;9.640;2023-02-17T06:14:59;24.80;;;10.30;;
71667;SDS011;59504;54.806;9.640;2023-02-17T06:17:20;18.48;;;9.57;;
71667;SDS011;59504;54.806;9.640;2023-02-17T06:19:41;22.48;;;10.50;;
71667;SDS011;59504;54.806;9.640;2023-02-17T06:22:02;23.50;;;11.23;;
71667;SDS011;59504;54.806;9.640;2023-02-17T06:24:23;21.60;;;10.25;;
71667;SDS011;59504;54.806;9.640;2023-02-17T06:26:44;18.20;;;9.95;;
71667;SDS011;59504;54.806;9.640;2023-02-17T06:29:08;22.58;;;9.77;;
71667;SDS011;59504;54.806;9.640;2023-02-17T06:33:50;19.60;;;8.95;;
71667;SDS011;59504;54.806;9.640;2023-02-17T06:36:11;15.63;;;8.63;;
71667;SDS011;59504;54.806;9.640;2023-02-17T06:38:32;22.05;;;9.77;;
71667;SDS011;59504;54.806;9.640;2023-02-17T06:40:53;18.20;;;8.55;;
71667;SDS011;59504;54.806;9.640;2023-02-17T06:43:14;19.13;;;9.13;;
71667;SDS011;59504;54.806;9.640;2023-02-17T06:45:35;17.65;;;8.30;;
71667;SDS011;59504;54.806;9.640;2023-02-17T06:47:56;13.77;;;7.95;;
71667;SDS011;59504;54.806;9.640;2023-02-17T06:50:17;16.10;;;8.68;;
71667;SDS011;59504;54.806;9.640;2023-02-17T06:52:37;17.98;;;8.75;;
71667;SDS011;59504;54.806;9.640;2023-02-17T06:54:58;15.25;;;7.82;;
71667;SDS011;59504;54.806;9.640;2023-02-17T06:57:19;11.05;;;6.80;;
71667;SDS011;59504;54.806;9.640;2023-02-17T06:59:40;13.50;;;7.57;;
71667;SDS011;59504;54.806;9.640;2023-02-17T07:02:01;14.00;;;7.65;;
71667;SDS011;59504;54.806;9.640;2023-02-17T07:04:22;15.15;;;7.82;;
71667;SDS011;59504;54.806;9.640;2023-02-17T07:06:43;11.55;;;7.68;;
71667;SDS011;59504;54.806;9.640;2023-02-17T07:09:04;10.45;;;6.97;;
71667;SDS011;59504;54.806;9.640;2023-02-17T07:11:25;11.63;;;7.15;;
71667;SDS011;59504;54.806;9.640;2023-02-17T07:13:50;13.10;;;7.35;;
71667;SDS011;59504;54.806;9.640;2023-02-17T07:16:14;15.15;;;7.78;;
71667;SDS011;59504;54.806;9.640;2023-02-17T07:18:35;12.98;;;8.02;;
71667;SDS011;59504;54.806;9.640;2023-02-17T07:20:57;14.45;;;8.57;;
71667;SDS011;59504;54.806;9.640;2023-02-17T07:23:18;16.38;;;8.52;;
71667;SDS011;59504;54.806;9.640;2023-02-17T07:25:39;17.33;;;8.65;;
71667;SDS011;59504;54.806;9.640;2023-02-17T07:28:00;14.05;;;8.02;;
71667;SDS011;59504;54.806;9.640;2023-02-17T07:30:21;17.60;;;8.27;;
71667;SDS011;59504;54.806;9.640;2023-02-17T07:32:42;13.88;;;8.02;;
71667;SDS011;59504;54.806;9.640;2023-02-17T07:35:03;17.75;;;7.90;;
71667;SDS011;59504;54.806;9.640;2023-02-17T07:37:25;13.57;;;6.97;;
71667;SDS011;59504;54.806;9.640;2023-02-17T07:39:46;10.88;;;6.65;;
71667;SDS011;59504;54.806;9.640;2023-02-17T07:42:07;12.20;;;7.55;;
71667;SDS011;59504;54.806;9.640;2023-02-17T07:44:29;14.48;;;7.90;;
71667;SDS011;59504;54.806;9.640;2023-02-17T07:46:50;17.70;;;8.75;;
71667;SDS011;59504;54.806;9.640;2023-02-17T07:49:11;20.45;;;9.57;;
71667;SDS011;59504;54.806;9.640;2023-02-17T07:51:32;27.63;;;11.75;;
71667;SDS011;59504;54.806;9.640;2023-02-17T07:53:54;18.48;;;10.52;;
71667;SDS011;59504;54.806;9.640;2023-02-17T07:56:15;24.25;;;11.20;;
71667;SDS011;59504;54.806;9.640;2023-02-17T07:58:39;26.55;;;11.43;;
71667;SDS011;59504;54.806;9.640;2023-02-17T08:01:05;26.33;;;13.18;;
71667;SDS011;59504;54.806;9.640;2023-02-17T08:03:36;21.90;;;11.85;;
71667;SDS011;59504;54.806;9.640;2023-02-17T08:05:57;21.85;;;11.23;;
71667;SDS011;59504;54.806;9.640;2023-02-17T08:08:21;25.55;;;11.32;;
71667;SDS011;59504;54.806;9.640;2023-02-17T08:11:00;23.45;;;11.55;;
71667;SDS011;59504;54.806;9.640;2023-02-17T08:13:40;23.65;;;10.77;;
71667;SDS011;59504;54.806;9.640;2023-02-17T08:16:01;20.77;;;10.45;;
71667;SDS011;59504;54.806;9.640;2023-02-17T08:18:22;24.60;;;10.75;;
71667;SDS011;59504;54.806;9.640;2023-02-17T08:20:43;21.55;;;10.93;;
71667;SDS011;59504;54.806;9.640;2023-02-17T08:23:06;24.70;;;10.18;;
71667;SDS011;59504;54.806;9.640;2023-02-17T08:25:30;25.50;;;11.55;;
71667;SDS011;59504;54.806;9.640;2023-02-17T08:27:52;24.58;;;10.70;;
71667;SDS011;59504;54.806;9.640;2023-02-17T08:30:14;21.85;;;10.43;;
71667;SDS011;59504;54.806;9.640;2023-02-17T08:32:35;23.23;;;9.82;;
71667;SDS011;59504;54.806;9.640;2023-02-17T08:34:56;20.20;;;9.60;;
71667;SDS011;59504;54.806;9.640;2023-02-17T08:37:17;22.33;;;10.93;;
71667;SDS011;59504;54.806;9.640;2023-02-17T08:39:38;18.35;;;9.23;;
71667;SDS011;59504;54.806;9.640;2023-02-17T08:41:59;20.17;;;8.05;;
71667;SDS011;59504;54.806;9.640;2023-02-17T08:44:21;15.57;;;7.30;;
71667;SDS011;59504;54.806;9.640;2023-02-17T08:46:43;12.20;;;6.60;;
71667;SDS011;59504;54.806;9.640;2023-02-17T08:49:06;12.23;;;6.35;;
71667;SDS011;59504;54.806;9.640;2023-02-17T08:51:28;11.55;;;5.78;;
71667;SDS011;59504;54.806;9.640;2023-02-17T08:53:49;13.60;;;5.65;;
71667;SDS011;59504;54.806;9.640;2023-02-17T08:56:11;11.27;;;5.60;;
71667;SDS011;59504;54.806;9.640;2023-02-17T08:58:34;12.13;;;5.97;;
71667;SDS011;59504;54.806;9.640;2023-02-17T09:00:56;9.32;;;4.80;;
71667;SDS011;59504;54.806;9.640;2023-02-17T09:03:17;11.70;;;4.68;;
71667;SDS011;59504;54.806;9.640;2023-02-17T09:05:38;9.27;;;4.78;;
71667;SDS011;59504;54.806;9.640;2023-02-17T09:07:59;11.57;;;4.97;;
71667;SDS011;59504;54.806;9.640;2023-02-17T09:10:20;10.25;;;5.38;;
71667;SDS011;59504;54.806;9.640;2023-02-17T09:12:44;10.13;;;5.10;;
71667;SDS011;59504;54.806;9.640;2023-02-17T09:15:05;14.65;;;5.75;;
71667;SDS011;59504;54.806;9.640;2023-02-17T09:17:26;12.48;;;5.88;;
71667;SDS011;59504;54.806;9.640;2023-02-17T09:19:47;10.13;;;5.47;;
71667;SDS011;59504;54.806;9.640;2023-02-17T09:22:08;9.32;;;5.05;;
71667;SDS011;59504;54.806;9.640;2023-02-17T09:24:29;12.88;;;6.00;;
71667;SDS011;59504;54.806;9.640;2023-02-17T09:26:52;11.20;;;5.38;;
71667;SDS011;59504;54.806;9.640;2023-02-17T09:29:15;12.05;;;5.95;;
71667;SDS011;59504;54.806;9.640;2023-02-17T09:31:36;12.27;;;6.03;;
71667;SDS011;59504;54.806;9.640;2023-02-17T09:33:57;10.90;;;5.55;;
71667;SDS011;59504;54.806;9.640;2023-02-17T09:36:20;10.52;;;4.75;;
71667;SDS011;59504;54.806;9.640;2023-02-17T09:38:43;10.68;;;5.40;;
71667;SDS011;59504;54.806;9.640;2023-02-17T09:41:13;13.68;;;6.10;;
71667;SDS011;59504;54.806;9.640;2023-02-17T09:43:44;16.35;;;6.43;;
71667;SDS011;59504;54.806;9.640;2023-02-17T09:46:08;16.98;;;7.20;;
71667;SDS011;59504;54.806;9.640;2023-02-17T09:48:33;18.58;;;8.10;;
71667;SDS011;59504;54.806;9.640;2023-02-17T09:51:00;21.33;;;7.78;;
71667;SDS011;59504;54.806;9.640;2023-02-17T09:53:46;19.92;;;7.68;;
71667;SDS011;59504;54.806;9.640;2023-02-17T09:56:09;17.73;;;8.10;;
71667;SDS011;59504;54.806;9.640;2023-02-17T09:58:37;20.90;;;8.15;;
71667;SDS011;59504;54.806;9.640;2023-02-17T10:01:03;22.67;;;8.85;;
71667;SDS011;59504;54.806;9.640;2023-02-17T10:03:40;23.92;;;9.40;;
71667;SDS011;59504;54.806;9.640;2023-02-17T10:06:15;20.75;;;8.05;;
71667;SDS011;59504;54.806;9.640;2023-02-17T10:08:41;18.70;;;6.72;;
71667;SDS011;59504;54.806;9.640;2023-02-17T10:11:20;18.23;;;7.20;;
71667;SDS011;59504;54.806;9.640;2023-02-17T10:14:01;15.15;;;6.57;;
71667;SDS011;59504;54.806;9.640;2023-02-17T10:16:34;18.85;;;7.00;;
71667;SDS011;59504;54.806;9.640;2023-02-17T10:19:00;16.85;;;6.30;;
71667;SDS011;59504;54.806;9.640;2023-02-17T10:21:31;17.67;;;6.70;;
71667;SDS011;59504;54.806;9.640;2023-02-17T10:24:00;14.80;;;6.15;;
71667;SDS011;59504;54.806;9.640;2023-02-17T10:28:52;17.98;;;6.80;;
71667;SDS011;59504;54.806;9.640;2023-02-17T10:34:01;21.50;;;8.55;;
71667;SDS011;59504;54.806;9.640;2023-02-17T10:39:02;21.90;;;8.63;;
71667;SDS011;59504;54.806;9.640;2023-02-17T10:41:44;35.30;;;9.20;;
71667;SDS011;59504;54.806;9.640;2023-02-17T10:46:36;29.23;;;9.77;;
71667;SDS011;59504;54.806;9.640;2023-02-17T10:49:08;24.65;;;9.02;;
71667;SDS011;59504;54.806;9.640;2023-02-17T10:51:48;30.40;;;10.10;;
71667;SDS011;59504;54.806;9.640;2023-02-17T10:54:15;43.15;;;9.93;;
71667;SDS011;59504;54.806;9.640;2023-02-17T10:56:49;36.97;;;10.05;;
71667;SDS011;59504;54.806;9.640;2023-02-17T11:01:40;34.08;;;10.13;;
71667;SDS011;59504;54.806;9.640;2023-02-17T11:04:04;45.15;;;10.65;;
71667;SDS011;59504;54.806;9.640;2023-02-17T11:06:27;49.22;;;11.48;;
71667;SDS011;59504;54.806;9.640;2023-02-17T11:09:06;43.33;;;9.25;;
71667;SDS011;59504;54.806;9.640;2023-02-17T11:11:48;47.42;;;9.90;;
71667;SDS011;59504;54.806;9.640;2023-02-17T11:14:18;45.22;;;9.23;;
71667;SDS011;59504;54.806;9.640;2023-02-17T11:16:47;38.15;;;8.50;;
71667;SDS011;59504;54.806;9.640;2023-02-17T11:19:21;44.33;;;9.18;;
71667;SDS011;59504;54.806;9.640;2023-02-17T11:21:45;41.88;;;9.43;;
71667;SDS011;59504;54.806;9.640;2023-02-17T11:24:09;44.88;;;9.18;;
71667;SDS011;59504;54.806;9.640;2023-02-17T11:26:32;46.50;;;8.63;;
71667;SDS011;59504;54.806;9.640;2023-02-17T11:28:54;48.28;;;10.40;;
71667;SDS011;59504;54.806;9.640;2023-02-17T11:31:28;40.20;;;7.95;;
71667;SDS011;59504;54.806;9.640;2023-02-17T11:33:50;41.72;;;7.60;;
71667;SDS011;59504;54.806;9.640;2023-02-17T11:36:20;39.03;;;7.43;;
71667;SDS011;59504;54.806;9.640;2023-02-17T11:38:51;36.10;;;8.18;;
71667;SDS011;59504;54.806;9.640;2023-02-17T11:41:12;35.40;;;7.10;;
71667;SDS011;59504;54.806;9.640;2023-02-17T11:43:34;53.33;;;8.15;;
71667;SDS011;59504;54.806;9.640;2023-02-17T11:56:42;32.85;;;6.45;;
71667;SDS011;59504;54.806;9.640;2023-02-17T11:59:29;40.58;;;7.80;;
71667;SDS011;59504;54.806;9.640;2023-02-17T12:02:16;38.05;;;7.07;;
71667;SDS011;59504;54.806;9.640;2023-02-17T12:07:56;31.77;;;6.18;;
71667;SDS011;59504;54.806;9.640;2023-02-17T12:10:44;38.58;;;6.50;;
71667;SDS011;59504;54.806;9.640;2023-02-17T12:13:38;34.97;;;5.93;;
71667;SDS011;59504;54.806;9.640;2023-02-17T12:16:17;35.50;;;6.88;;
71667;SDS011;59504;54.806;9.640;2023-02-17T12:25:03;42.13;;;5.75;;
71667;SDS011;59504;54.806;9.640;2023-02-17T12:35:30;40.88;;;6.20;;
71667;SDS011;59504;54.806;9.640;2023-02-17T12:38:11;38.70;;;5.25;;
71667;SDS011;59504;54.806;9.640;2023-02-17T12:40:36;36.70;;;5.15;;
71667;SDS011;59504;54.806;9.640;2023-02-17T12:43:02;33.22;;;5.30;;
71667;SDS011;59504;54.806;9.640;2023-02-17T12:45:41;41.80;;;5.95;;
71667;SDS011;59504;54.806;9.640;2023-02-17T12:48:09;31.30;;;4.47;;
71667;SDS011;59504;54.806;9.640;2023-02-17T12:50:39;37.38;;;5.47;;
71667;SDS011;59504;54.806;9.640;2023-02-17T12:53:15;30.83;;;4.97;;
71667;SDS011;59504;54.806;9.640;2023-02-17T12:55:46;29.73;;;5.03;;
71667;SDS011;59504;54.806;9.640;2023-02-17T13:00:43;27.90;;;4.75;;
71667;SDS011;59504;54.806;9.640;2023-02-17T13:03:07;39.92;;;6.18;;
71667;SDS011;59504;54.806;9.640;2023-02-17T13:05:41;33.20;;;5.60;;
71667;SDS011;59504;54.806;9.640;2023-02-17T13:08:09;47.50;;;5.82;;
71667;SDS011;59504;54.806;9.640;2023-02-17T13:10:34;42.65;;;5.25;;
71667;SDS011;59504;54.806;9.640;2023-02-17T13:12:59;32.08;;;6.00;;
71667;SDS011;59504;54.806;9.640;2023-02-17T13:18:05;37.17;;;5.07;;
71667;SDS011;59504;54.806;9.640;2023-02-17T13:20:54;36.85;;;6.13;;
71667;SDS011;59504;54.806;9.640;2023-02-17T13:23:28;43.08;;;5.95;;
71667;SDS011;59504;54.806;9.640;2023-02-17T13:26:12;38.80;;;5.53;;
71667;SDS011;59504;54.806;9.640;2023-02-17T13:28:37;44.08;;;6.05;;
71667;SDS011;59504;54.806;9.640;2023-02-17T13:31:07;44.97;;;5.72;;
71667;SDS011;59504;54.806;9.640;2023-02-17T13:33:38;35.33;;;4.72;;
71667;SDS011;59504;54.806;9.640;2023-02-17T13:36:10;31.60;;;4.93;;
71667;SDS011;59504;54.806;9.640;2023-02-17T13:38:32;47.83;;;5.88;;
71667;SDS011;59504;54.806;9.640;2023-02-17T13:40:56;47.08;;;6.00;;
71667;SDS011;59504;54.806;9.640;2023-02-17T13:43:19;40.60;;;5.43;;
71667;SDS011;59504;54.806;9.640;2023-02-17T13:45:44;44.08;;;5.32;;
71667;SDS011;59504;54.806;9.640;2023-02-17T13:48:13;39.58;;;5.90;;
71667;SDS011;59504;54.806;9.640;2023-02-17T13:50:35;35.00;;;4.85;;
71667;SDS011;59504;54.806;9.640;2023-02-17T13:52:58;42.95;;;6.28;;
71667;SDS011;59504;54.806;9.640;2023-02-17T13:55:20;41.63;;;5.55;;
71667;SDS011;59504;54.806;9.640;2023-02-17T13:57:50;36.42;;;6.20;;
71667;SDS011;59504;54.806;9.640;2023-02-17T14:02:52;25.52;;;4.32;;
71667;SDS011;59504;54.806;9.640;2023-02-17T14:08:02;38.25;;;5.03;;
71667;SDS011;59504;54.806;9.640;2023-02-17T14:10:26;43.13;;;5.75;;
71667;SDS011;59504;54.806;9.640;2023-02-17T14:12:47;44.40;;;5.03;;
71667;SDS011;59504;54.806;9.640;2023-02-17T14:15:16;34.55;;;4.70;;
71667;SDS011;59504;54.806;9.640;2023-02-17T14:17:38;37.00;;;5.22;;
71667;SDS011;59504;54.806;9.640;2023-02-17T14:19:59;34.78;;;5.53;;
71667;SDS011;59504;54.806;9.640;2023-02-17T14:22:24;33.30;;;5.10;;
71667;SDS011;59504;54.806;9.640;2023-02-17T14:25:02;43.97;;;6.13;;
71667;SDS011;59504;54.806;9.640;2023-02-17T14:27:28;44.73;;;5.40;;
71667;SDS011;59504;54.806;9.640;2023-02-17T14:29:59;58.03;;;6.88;;
71667;SDS011;59504;54.806;9.640;2023-02-17T14:32:38;38.70;;;5.65;;
71667;SDS011;59504;54.806;9.640;2023-02-17T14:37:32;41.25;;;5.30;;
71667;SDS011;59504;54.806;9.640;2023-02-17T14:39:56;48.00;;;7.00;;
71667;SDS011;59504;54.806;9.640;2023-02-17T14:42:17;48.65;;;5.93;;
71667;SDS011;59504;54.806;9.640;2023-02-17T14:44:38;36.75;;;4.80;;
71667;SDS011;59504;54.806;9.640;2023-02-17T14:46:59;35.45;;;5.60;;
71667;SDS011;59504;54.806;9.640;2023-02-17T14:49:20;41.35;;;5.68;;
71667;SDS011;59504;54.806;9.640;2023-02-17T14:51:41;32.00;;;5.20;;
71667;SDS011;59504;54.806;9.640;2023-02-17T14:54:07;31.73;;;4.47;;
71667;SDS011;59504;54.806;9.640;2023-02-17T14:56:33;29.73;;;4.95;;
71667;SDS011;59504;54.806;9.640;2023-02-17T14:58:57;51.00;;;6.03;;
71667;SDS011;59504;54.806;9.640;2023-02-17T15:01:34;40.47;;;5.68;;
71667;SDS011;59504;54.806;9.640;2023-02-17T15:03:55;34.45;;;4.88;;
71667;SDS011;59504;54.806;9.640;2023-02-17T15:06:23;48.28;;;5.28;;
71667;SDS011;59504;54.806;9.640;2023-02-17T15:08:44;36.50;;;5.18;;
71667;SDS011;59504;54.806;9.640;2023-02-17T15:11:16;41.78;;;5.03;;
71667;SDS011;59504;54.806;9.640;2023-02-17T15:13:39;45.80;;;5.57;;
71667;SDS011;59504;54.806;9.640;2023-02-17T15:16:00;37.65;;;5.78;;
71667;SDS011;59504;54.806;9.640;2023-02-17T15:18:21;30.48;;;5.57;;
71667;SDS011;59504;54.806;9.640;2023-02-17T15:20:43;34.58;;;4.95;;
71667;SDS011;59504;54.806;9.640;2023-02-17T15:23:14;43.45;;;6.10;;
71667;SDS011;59504;54.806;9.640;2023-02-17T15:25:37;47.85;;;5.75;;